Date,TemperatureHighF,TemperatureAvgF,TemperatureLowF,DewpointHighF,DewpointAvgF,DewpointLowF,HumidityHigh,HumidityAvg,HumidityLow,PressureMaxIn,PressureMinIn,WindSpeedMaxMPH,WindSpeedAvgMPH,GustSpeedMaxMPH,PrecipitationSumIn
2013-4-1,77.8,66.8,59.0,62.2,53.9,41.6,97,68,30,29.58,29.45,14,1,17,0.59
2013-4-2,76.5,62.9,48.7,47.3,44.7,41.7,89,55,32,29.74,29.58,10,1,11,0.00
2013-4-3,65.0,56.4,48.8,52.7,41.3,33.1,88,59,37,29.75,29.66,15,2,15,0.14
2013-4-4,51.6,46.8,44.2,48.7,45.2,42.4,95,94,89,29.72,29.54,21,4,21,0.67
2013-4-5,62.6,50.1,41.8,48.6,44.3,40.4,96,82,58,29.63,29.50,10,1,10,0.01
2013-4-6,74.2,58.1,40.6,50.6,43.5,39.0,96,64,31,29.77,29.63,13,1,13,0.00
2013-4-7,77.5,63.6,47.6,57.0,50.2,43.9,92,64,38,29.80,29.65,13,2,13,0.00
2013-4-8,80.8,68.8,56.8,59.6,56.7,53.9,92,68,43,29.75,29.64,16,2,16,0.00
2013-4-9,84.8,71.9,59.5,63.7,59.1,56.7,92,67,42,29.77,29.67,11,1,11,0.00
2013-4-10,84.1,72.6,60.8,62.6,59.7,56.6,94,67,40,29.71,29.52,13,2,13,4.70
2013-4-11,82.5,72.1,63.5,71.7,65.8,58.7,95,81,62,29.55,29.28,21,2,21,0.40
2013-4-12,72.0,69.8,68.0,70.2,67.4,65.3,94,92,89,29.39,29.27,23,4,23,0.55
2013-4-13,79.7,64.0,47.0,51.2,45.0,38.6,91,56,25,29.61,29.52,3,1,20,0.00
2013-4-14,61.2,58.2,53.0,59.1,54.4,47.5,95,87,72,29.65,29.42,12,1,28,0.42
2013-4-15,79.9,67.3,58.4,64.1,60.8,57.3,97,81,58,29.70,29.50,4,1,12,0.00
2013-4-16,83.0,71.7,60.2,65.5,62.6,58.5,96,75,50,29.81,29.71,4,1,13,0.00
2013-4-17,84.8,74.1,63.6,64.3,63.0,61.4,93,70,49,29.80,29.67,3,1,9,0.00
2013-4-18,84.5,73.3,62.1,67.2,62.6,59.5,93,72,44,29.67,29.52,5,2,16,0.00
2013-4-19,76.2,58.8,50.4,69.6,56.0,48.5,95,90,79,29.65,29.42,12,2,21,0.80
2013-4-20,50.4,46.0,41.3,48.2,42.6,38.6,92,88,84,29.75,29.63,8,0,8,0.00